createdAt,value
2018-07-03T00:00:45.492Z,999.44
2018-07-03T00:01:45.502Z,999.42
2018-07-03T00:02:45.470Z,999.43
2018-07-03T00:03:45.459Z,999.45
2018-07-03T00:04:45.486Z,999.43
2018-07-03T00:05:45.438Z,999.45
2018-07-03T00:06:45.429Z,999.42
2018-07-03T00:07:45.415Z,999.39
2018-07-03T00:08:45.404Z,999.37
2018-07-03T00:09:45.413Z,999.37
2018-07-03T00:10:45.397Z,999.37
2018-07-03T00:11:45.372Z,999.38
2018-07-03T00:12:45.362Z,999.33
2018-07-03T00:13:45.351Z,999.45
2018-07-03T00:14:45.358Z,999.43
2018-07-03T00:15:45.329Z,999.38
2018-07-03T00:16:45.336Z,999.37
2018-07-03T00:17:45.307Z,999.34
2018-07-03T00:18:45.295Z,999.32
2018-07-03T00:19:45.305Z,999.30
2018-07-03T00:20:45.274Z,999.37
2018-07-03T00:21:45.266Z,999.37
2018-07-03T00:22:45.271Z,999.35
2018-07-03T00:23:45.243Z,999.37
2018-07-03T00:24:45.251Z,999.36
2018-07-03T00:25:45.219Z,999.32
2018-07-03T00:26:45.212Z,999.34
2018-07-03T00:27:45.197Z,999.32
2018-07-03T00:28:45.200Z,999.33
2018-07-03T00:29:45.198Z,999.31
2018-07-03T00:30:45.170Z,999.30
2018-07-03T00:31:45.166Z,999.25
2018-07-03T00:32:45.149Z,999.21
2018-07-03T00:33:45.133Z,999.15
2018-07-03T00:34:45.167Z,999.12
2018-07-03T00:35:45.113Z,999.12
2018-07-03T00:36:45.100Z,999.10
2018-07-03T00:37:45.089Z,999.09
2018-07-03T00:38:45.078Z,999.11
2018-07-03T00:39:45.089Z,999.14
2018-07-03T00:40:45.069Z,999.12
2018-07-03T00:41:45.048Z,999.16
2018-07-03T00:42:45.037Z,999.18
2018-07-03T00:43:45.029Z,999.20
2018-07-03T00:44:45.034Z,999.23
2018-07-03T00:45:45.009Z,999.15
2018-07-03T00:46:44.992Z,999.15
2018-07-03T00:47:44.980Z,999.12
2018-07-03T00:48:44.968Z,999.12
2018-07-03T00:49:44.979Z,999.10
2018-07-03T00:50:44.948Z,999.07
2018-07-03T00:51:44.949Z,999.06
2018-07-03T00:52:44.927Z,999.07
2018-07-03T00:53:44.915Z,999.04
2018-07-03T00:54:44.932Z,999.03
2018-07-03T00:55:44.892Z,999.06
2018-07-03T00:56:44.884Z,999.05
2018-07-03T00:57:44.889Z,999.10
2018-07-03T00:58:44.861Z,999.10
2018-07-03T00:59:44.871Z,999.05
2018-07-03T01:00:44.838Z,999.06
2018-07-03T01:01:44.829Z,999.03
2018-07-03T01:02:44.816Z,999.02
2018-07-03T01:03:44.818Z,999.06
2018-07-03T01:04:44.816Z,999.07
2018-07-03T01:05:44.785Z,999.04
2018-07-03T01:06:44.773Z,999.03
2018-07-03T01:07:44.764Z,999.00
2018-07-03T01:08:44.750Z,999.01
2018-07-03T01:09:44.783Z,999.02
2018-07-03T01:10:44.730Z,999.01
2018-07-03T01:11:44.719Z,999.04
2018-07-03T01:12:44.706Z,999.02
2018-07-03T01:13:44.699Z,999.00
2018-07-03T01:14:44.706Z,998.99
2018-07-03T01:15:44.698Z,998.99
2018-07-03T01:16:44.664Z,998.94
2018-07-03T01:17:44.653Z,998.96
2018-07-03T01:18:44.641Z,998.95
2018-07-03T01:19:44.651Z,998.92
2018-07-03T01:20:44.627Z,998.91
2018-07-03T01:21:44.626Z,998.94
2018-07-03T01:22:44.600Z,998.94
2018-07-03T01:23:44.589Z,998.92
2018-07-03T01:24:44.598Z,998.95
2018-07-03T01:25:44.567Z,998.95
2018-07-03T01:26:44.555Z,998.96
2018-07-03T01:27:44.558Z,998.97
2018-07-03T01:28:44.533Z,998.96
2018-07-03T01:29:44.542Z,998.93
2018-07-03T01:30:44.512Z,998.93
2018-07-03T01:31:44.501Z,998.94
2018-07-03T01:32:44.490Z,998.93
2018-07-03T01:33:44.499Z,998.98
2018-07-03T01:34:44.492Z,998.96
2018-07-03T01:35:44.458Z,999.04
2018-07-03T01:36:44.452Z,999.02
2018-07-03T01:37:44.437Z,999.05
2018-07-03T01:38:44.429Z,999.07
2018-07-03T01:39:44.450Z,999.02
2018-07-03T01:40:44.402Z,999.05
2018-07-03T01:41:44.394Z,998.99
2018-07-03T01:42:44.380Z,998.93
2018-07-03T01:43:44.370Z,998.97
2018-07-03T01:44:44.380Z,998.93
2018-07-03T01:45:44.370Z,998.98
2018-07-03T01:46:44.338Z,998.96
2018-07-03T01:47:44.328Z,998.97
2018-07-03T01:48:44.316Z,998.95
2018-07-03T01:49:44.316Z,998.98
2018-07-03T01:50:44.314Z,998.92
2018-07-03T01:51:44.296Z,998.90
2018-07-03T01:52:44.274Z,998.91
2018-07-03T01:53:44.268Z,998.95
2018-07-03T01:54:44.256Z,998.90
2018-07-03T01:55:44.261Z,998.92
2018-07-03T01:56:44.228Z,999.00
2018-07-03T01:57:44.236Z,999.02
2018-07-03T01:58:44.206Z,998.97
2018-07-03T01:59:44.196Z,998.92
2018-07-03T02:00:44.206Z,998.94
2018-07-03T02:01:44.173Z,998.97
2018-07-03T02:02:44.208Z,998.88
2018-07-03T02:03:44.164Z,998.83
2018-07-03T02:04:44.147Z,998.89
2018-07-03T02:05:44.155Z,998.85
2018-07-03T02:06:44.121Z,998.86
2018-07-03T02:07:44.109Z,998.87
2018-07-03T02:08:44.097Z,998.91
2018-07-03T02:09:44.098Z,998.92
2018-07-03T02:10:44.097Z,998.86
2018-07-03T02:11:44.066Z,998.95
2018-07-03T02:12:44.058Z,998.92
2018-07-03T02:13:44.042Z,998.87
2018-07-03T02:14:44.050Z,998.88
2018-07-03T02:15:44.042Z,998.86
2018-07-03T02:16:44.010Z,998.84
2018-07-03T02:17:43.999Z,998.77
2018-07-03T02:18:43.990Z,998.79
2018-07-03T02:19:43.980Z,998.83
2018-07-03T02:20:44.018Z,998.79
2018-07-03T02:21:43.957Z,998.80
2018-07-03T02:22:43.950Z,998.78
2018-07-03T02:23:43.934Z,998.81
2018-07-03T02:24:43.923Z,998.84
2018-07-03T02:25:43.935Z,998.80
2018-07-03T02:26:43.920Z,998.81
2018-07-03T02:27:43.894Z,998.85
2018-07-03T02:28:43.883Z,998.89
2018-07-03T02:29:43.872Z,998.81
2018-07-03T02:30:43.880Z,998.86
2018-07-03T02:31:43.850Z,998.82
2018-07-03T02:32:43.871Z,998.78
2018-07-03T02:33:43.826Z,998.78
2018-07-03T02:34:43.820Z,998.81
2018-07-03T02:35:43.804Z,998.80
2018-07-03T02:36:43.796Z,998.78
2018-07-03T02:37:43.805Z,998.76
2018-07-03T02:38:43.789Z,998.72
2018-07-03T02:39:43.762Z,998.73
2018-07-03T02:40:43.751Z,998.72
2018-07-03T02:41:43.740Z,998.72
2018-07-03T02:42:43.749Z,998.72
2018-07-03T02:43:43.717Z,998.72
2018-07-03T02:44:43.718Z,998.71
2018-07-03T02:45:43.693Z,998.71
2018-07-03T02:46:43.687Z,998.70
2018-07-03T02:47:43.697Z,998.70
2018-07-03T02:48:43.663Z,998.69
2018-07-03T02:49:43.655Z,998.66
2018-07-03T02:50:43.662Z,998.70
2018-07-03T02:51:43.632Z,998.67
2018-07-03T02:52:43.642Z,998.69
2018-07-03T02:53:43.608Z,998.69
2018-07-03T02:54:43.595Z,998.65
2018-07-03T02:55:43.587Z,998.69
2018-07-03T02:56:43.592Z,998.66
2018-07-03T02:57:43.587Z,998.65
2018-07-03T02:58:43.553Z,998.73
2018-07-03T02:59:43.545Z,998.65
2018-07-03T03:00:43.532Z,998.75
2018-07-03T03:01:43.524Z,998.70
2018-07-03T03:02:43.548Z,998.75
2018-07-03T03:03:43.501Z,998.75
2018-07-03T03:04:43.489Z,998.73
2018-07-03T03:05:43.478Z,998.71
2018-07-03T03:06:43.468Z,998.73
2018-07-03T03:07:43.474Z,998.73
2018-07-03T03:08:43.459Z,998.76
2018-07-03T03:09:43.434Z,998.81
2018-07-03T03:10:43.425Z,998.79
2018-07-03T03:11:43.412Z,998.78
2018-07-03T03:12:43.426Z,998.78
2018-07-03T03:13:43.390Z,998.75
2018-07-03T03:14:43.392Z,998.74
2018-07-03T03:15:43.369Z,998.74
2018-07-03T03:16:43.359Z,998.74
2018-07-03T03:17:43.368Z,998.73
2018-07-03T03:18:43.335Z,998.78
2018-07-03T03:19:43.326Z,998.81
2018-07-03T03:20:43.326Z,998.81
2018-07-03T03:21:43.303Z,998.81
2018-07-03T03:22:43.315Z,998.75
2018-07-03T03:23:43.303Z,998.75
2018-07-03T03:24:43.270Z,998.71
2018-07-03T03:25:43.259Z,998.77
2018-07-03T03:26:43.266Z,998.74
2018-07-03T03:27:43.237Z,998.74
2018-07-03T03:28:43.247Z,998.78
2018-07-03T03:29:43.214Z,998.82
2018-07-03T03:30:43.212Z,998.83
2018-07-03T03:31:43.191Z,998.86
2018-07-03T03:32:43.196Z,998.83
2018-07-03T03:33:43.193Z,998.90
2018-07-03T03:34:43.161Z,998.87
2018-07-03T03:35:43.153Z,998.86
2018-07-03T03:36:43.141Z,998.85
2018-07-03T03:37:43.129Z,998.87
2018-07-03T03:38:43.154Z,998.92
2018-07-03T03:39:43.106Z,998.90
2018-07-03T03:40:43.096Z,998.92
2018-07-03T03:41:43.084Z,998.86
2018-07-03T03:42:43.073Z,998.91
2018-07-03T03:43:43.083Z,998.87
2018-07-03T03:44:43.067Z,998.89
2018-07-03T03:45:43.044Z,998.85
2018-07-03T03:46:43.032Z,998.83
2018-07-03T03:47:43.022Z,998.89
2018-07-03T03:48:43.030Z,998.91
2018-07-03T03:49:42.999Z,998.93
2018-07-03T03:50:43.008Z,998.90
2018-07-03T03:51:42.975Z,998.94
2018-07-03T03:52:42.967Z,998.96
2018-07-03T03:53:43.020Z,998.93
2018-07-03T03:54:42.942Z,998.98
2018-07-03T03:55:42.935Z,998.96
2018-07-03T03:56:42.950Z,998.97
2018-07-03T03:57:42.911Z,998.97
2018-07-03T03:58:42.919Z,998.99
2018-07-03T03:59:42.889Z,998.99
2018-07-03T04:00:42.880Z,999.01
2018-07-03T04:01:42.867Z,998.98
2018-07-03T04:02:42.870Z,999.04
2018-07-03T04:03:42.865Z,999.04
2018-07-03T04:04:42.835Z,999.09
2018-07-03T04:05:42.823Z,999.11
2018-07-03T04:06:42.814Z,999.11
2018-07-03T04:07:42.803Z,999.13
2018-07-03T04:08:42.839Z,999.11
2018-07-03T04:09:42.782Z,999.10
2018-07-03T04:10:42.774Z,999.11
2018-07-03T04:11:42.759Z,999.11
2018-07-03T04:12:42.747Z,999.07
2018-07-03T04:13:42.757Z,999.10
2018-07-03T04:14:42.726Z,999.09
2018-07-03T04:15:42.743Z,999.06
2018-07-03T04:16:42.702Z,999.06
2018-07-03T04:17:42.692Z,999.06
2018-07-03T04:18:42.701Z,999.08
2018-07-03T04:19:42.674Z,999.07
2018-07-03T04:20:42.662Z,999.06
2018-07-03T04:21:42.674Z,999.07
2018-07-03T04:22:42.640Z,999.06
2018-07-03T04:23:42.656Z,999.07
2018-07-03T04:24:42.616Z,999.04
2018-07-03T04:25:42.607Z,999.12
2018-07-03T04:26:42.593Z,999.10
2018-07-03T04:27:42.594Z,999.09
2018-07-03T04:28:42.591Z,999.09
2018-07-03T04:29:42.564Z,999.08
2018-07-03T04:30:42.550Z,999.14
2018-07-03T04:31:42.539Z,999.18
2018-07-03T04:32:42.528Z,999.17
2018-07-03T04:33:42.562Z,999.18
2018-07-03T04:34:42.507Z,999.16
2018-07-03T04:35:42.496Z,999.16
2018-07-03T04:36:42.485Z,999.19
2018-07-03T04:37:42.474Z,999.20
2018-07-03T04:38:43.071Z,999.18
2018-07-03T04:39:42.456Z,999.16
2018-07-03T04:40:42.440Z,999.20
2018-07-03T04:41:42.448Z,999.20
2018-07-03T04:42:42.420Z,999.21
2018-07-03T04:43:42.429Z,999.21
2018-07-03T04:44:42.414Z,999.26
2018-07-03T04:45:42.386Z,999.25
2018-07-03T04:46:42.379Z,999.27
2018-07-03T04:47:42.365Z,999.24
2018-07-03T04:48:42.375Z,999.26
2018-07-03T04:49:42.378Z,999.23
2018-07-03T04:50:42.335Z,999.23
2018-07-03T04:51:42.325Z,999.29
2018-07-03T04:52:42.312Z,999.28
2018-07-03T04:53:43.066Z,999.24
2018-07-03T04:54:42.290Z,999.27
2018-07-03T04:55:42.308Z,999.23
2018-07-03T04:56:42.268Z,999.27
2018-07-03T04:57:42.255Z,999.27
2018-07-03T04:58:42.263Z,999.30
2018-07-03T04:59:42.233Z,999.32
2018-07-03T05:00:42.223Z,999.31
2018-07-03T05:01:42.230Z,999.34
2018-07-03T05:02:42.204Z,999.33
2018-07-03T05:03:42.211Z,999.34
2018-07-03T05:04:42.181Z,999.33
2018-07-03T05:05:42.172Z,999.35
2018-07-03T05:06:42.159Z,999.36
2018-07-03T05:07:42.159Z,999.35
2018-07-03T05:08:45.570Z,999.34
2018-07-03T05:09:42.124Z,999.36
2018-07-03T05:10:42.116Z,999.34
2018-07-03T05:11:42.104Z,999.35
2018-07-03T05:12:42.095Z,999.35
2018-07-03T05:13:42.118Z,999.35
2018-07-03T05:14:42.090Z,999.35
2018-07-03T05:15:42.058Z,999.34
2018-07-03T05:16:42.049Z,999.39
2018-07-03T05:17:42.037Z,999.40
2018-07-03T05:18:42.026Z,999.42
2018-07-03T05:19:42.036Z,999.49
2018-07-03T05:20:42.022Z,999.51
2018-07-03T05:21:41.994Z,999.47
2018-07-03T05:22:41.983Z,999.48
2018-07-03T05:23:41.970Z,999.48
2018-07-03T05:24:42.041Z,999.49
2018-07-03T05:25:41.950Z,999.53
2018-07-03T05:26:41.959Z,999.52
2018-07-03T05:27:41.928Z,999.54
2018-07-03T05:28:41.922Z,999.54
2018-07-03T05:29:41.925Z,999.57
2018-07-03T05:30:41.895Z,999.57
2018-07-03T05:31:41.984Z,999.53
2018-07-03T05:32:41.883Z,999.50
2018-07-03T05:33:41.862Z,999.48
2018-07-03T05:34:41.875Z,999.46
2018-07-03T05:35:41.841Z,999.49
2018-07-03T05:36:41.831Z,999.54
2018-07-03T05:37:41.818Z,999.54
2018-07-03T05:38:41.816Z,999.57
2018-07-03T05:39:41.818Z,999.58
2018-07-03T05:40:41.787Z,999.57
2018-07-03T05:41:41.775Z,999.58
2018-07-03T05:42:41.765Z,999.59
2018-07-03T05:43:41.758Z,999.63
2018-07-03T05:44:41.784Z,999.66
2018-07-03T05:45:41.732Z,999.67
2018-07-03T05:46:41.721Z,999.67
2018-07-03T05:47:41.710Z,999.68
2018-07-03T05:48:41.701Z,999.70
2018-07-03T05:49:41.710Z,999.67
2018-07-03T05:50:41.691Z,999.65
2018-07-03T05:51:41.668Z,999.69
2018-07-03T05:52:41.656Z,999.68
2018-07-03T05:53:41.651Z,999.73
2018-07-03T05:54:41.682Z,999.70
2018-07-03T05:55:41.625Z,999.71
2018-07-03T05:56:41.633Z,999.73
2018-07-03T05:57:41.601Z,999.75
2018-07-03T05:58:41.592Z,999.70
2018-07-03T05:59:41.598Z,999.74
2018-07-03T06:00:41.568Z,999.75
2018-07-03T06:01:41.651Z,999.69
2018-07-03T06:02:41.546Z,999.69
2018-07-03T06:03:41.547Z,999.73
2018-07-03T06:04:41.718Z,999.70
2018-07-03T06:05:41.515Z,999.70
2018-07-03T06:06:41.526Z,999.74
2018-07-03T06:07:41.525Z,999.73
2018-07-03T06:08:41.485Z,999.75
2018-07-03T06:09:41.493Z,999.82
2018-07-03T06:10:41.468Z,999.83
2018-07-03T06:11:41.482Z,999.80
2018-07-03T06:12:41.435Z,999.86
2018-07-03T06:13:41.424Z,999.86
2018-07-03T06:14:41.437Z,999.83
2018-07-03T06:15:41.447Z,999.82
2018-07-03T06:16:41.391Z,999.82
2018-07-03T06:17:41.404Z,999.77
2018-07-03T06:18:41.370Z,999.77
2018-07-03T06:19:41.384Z,999.84
2018-07-03T06:20:41.377Z,999.84
2018-07-03T06:21:41.337Z,999.83
2018-07-03T06:22:41.381Z,999.83
2018-07-03T06:23:41.313Z,999.84
2018-07-03T06:24:41.369Z,999.84
2018-07-03T06:25:41.304Z,999.86
2018-07-03T06:26:41.282Z,999.89
2018-07-03T06:27:41.309Z,999.90
2018-07-03T06:28:41.276Z,999.88
2018-07-03T06:29:41.272Z,999.89
2018-07-03T06:30:41.245Z,999.82
2018-07-03T06:31:41.228Z,999.85
2018-07-03T06:32:41.233Z,999.81
2018-07-03T06:33:41.204Z,999.83
2018-07-03T06:34:41.214Z,999.82
2018-07-03T06:35:41.183Z,999.82
2018-07-03T06:36:41.182Z,999.79
2018-07-03T06:37:41.227Z,999.78
2018-07-03T06:38:41.244Z,999.77
2018-07-03T06:39:41.161Z,999.76
2018-07-03T06:40:41.138Z,999.81
2018-07-03T06:41:41.118Z,999.79
2018-07-03T06:42:41.104Z,999.83
2018-07-03T06:43:41.103Z,999.78
2018-07-03T06:44:41.127Z,999.82
2018-07-03T06:45:41.114Z,999.80
2018-07-03T06:46:41.061Z,999.80
2018-07-03T06:47:41.050Z,999.77
2018-07-03T06:48:41.048Z,999.76
2018-07-03T06:49:41.048Z,999.75
2018-07-03T06:50:41.016Z,999.74
2018-07-03T06:51:41.117Z,999.73
2018-07-03T06:52:40.996Z,999.73
2018-07-03T06:53:41.004Z,999.68
2018-07-03T06:54:40.996Z,999.67
2018-07-03T06:55:40.971Z,999.67
2018-07-03T06:56:40.964Z,999.67
2018-07-03T06:57:40.941Z,999.65
2018-07-03T06:58:40.929Z,999.64
2018-07-03T06:59:40.978Z,999.65
2018-07-03T07:00:40.906Z,999.66
2018-07-03T07:01:40.896Z,999.66
2018-07-03T07:02:40.893Z,999.68
2018-07-03T07:03:40.874Z,999.67
2018-07-03T07:04:40.861Z,999.68
2018-07-03T07:05:40.873Z,999.68
2018-07-03T07:06:40.930Z,999.69
2018-07-03T07:07:40.830Z,999.68
2018-07-03T07:08:40.866Z,999.67
2018-07-03T07:09:40.826Z,999.69
2018-07-03T07:10:40.919Z,999.74
2018-07-03T07:11:40.788Z,999.65
2018-07-03T07:12:40.778Z,999.67
2018-07-03T07:13:42.348Z,999.65
2018-07-03T07:14:40.751Z,999.72
2018-07-03T07:15:40.760Z,999.70
2018-07-03T07:16:40.741Z,999.72
2018-07-03T07:17:40.719Z,999.65
2018-07-03T07:18:40.713Z,999.66
2018-07-03T07:19:40.700Z,999.70
2018-07-03T07:20:40.706Z,999.73
2018-07-03T07:21:40.675Z,999.72
2018-07-03T07:22:40.669Z,999.75
2018-07-03T07:23:40.655Z,999.69
2018-07-03T07:24:40.649Z,999.73
2018-07-03T07:25:40.655Z,999.72
2018-07-03T07:26:40.630Z,999.68
2018-07-03T07:27:40.609Z,999.68
2018-07-03T07:28:40.599Z,999.67
2018-07-03T07:29:40.591Z,999.67
2018-07-03T07:30:40.599Z,999.68
2018-07-03T07:31:40.570Z,999.68
2018-07-03T07:32:40.554Z,999.62
2018-07-03T07:33:40.564Z,999.58
2018-07-03T07:34:40.533Z,999.58
2018-07-03T07:35:40.544Z,999.56
2018-07-03T07:36:40.509Z,999.61
2018-07-03T07:37:40.502Z,999.60
2018-07-03T07:38:40.488Z,999.55
2018-07-03T07:39:40.494Z,999.57
2018-07-03T07:40:40.486Z,999.53
2018-07-03T07:41:40.460Z,999.56
2018-07-03T07:42:40.467Z,999.54
2018-07-03T07:43:40.433Z,999.56
2018-07-03T07:44:40.423Z,999.59
2018-07-03T07:45:40.481Z,999.52
2018-07-03T07:46:40.405Z,999.57
2018-07-03T07:47:40.391Z,999.55
2018-07-03T07:48:40.436Z,999.55
2018-07-03T07:49:40.379Z,999.51
2018-07-03T07:50:40.377Z,999.51
2018-07-03T07:51:40.344Z,999.52
2018-07-03T07:52:40.336Z,999.50
2018-07-03T07:53:40.352Z,999.52
2018-07-03T07:54:40.311Z,999.49
2018-07-03T07:55:40.322Z,999.53
2018-07-03T07:56:40.334Z,999.54
2018-07-03T07:57:40.281Z,999.50
2018-07-03T07:58:40.269Z,999.49
2018-07-03T07:59:40.257Z,999.49
2018-07-03T08:00:40.266Z,999.51
2018-07-03T08:01:40.234Z,999.50
2018-07-03T08:02:40.287Z,999.48
2018-07-03T08:03:40.223Z,999.45
2018-07-03T08:04:40.201Z,999.46
2018-07-03T08:05:40.226Z,999.44
2018-07-03T08:06:40.193Z,999.44
2018-07-03T08:07:40.170Z,999.48
2018-07-03T08:08:40.159Z,999.50
2018-07-03T08:09:40.186Z,999.53
2018-07-03T08:10:40.166Z,999.49
2018-07-03T08:11:40.123Z,999.49
2018-07-03T08:12:40.113Z,999.47
2018-07-03T08:13:40.128Z,999.55
2018-07-03T08:14:40.094Z,999.49
2018-07-03T08:15:40.101Z,999.53
2018-07-03T08:16:40.070Z,999.59
2018-07-03T08:17:40.122Z,999.57
2018-07-03T08:18:40.061Z,999.55
2018-07-03T08:19:40.035Z,999.55
2018-07-03T08:20:41.043Z,999.56
2018-07-03T08:21:40.013Z,999.53
2018-07-03T08:22:40.004Z,999.57
2018-07-03T08:23:40.132Z,999.56
2018-07-03T08:24:39.983Z,999.58
2018-07-03T08:25:39.997Z,999.54
2018-07-03T08:26:39.971Z,999.56
2018-07-03T08:27:39.948Z,999.56
2018-07-03T08:28:39.938Z,999.57
2018-07-03T08:29:39.928Z,999.53
2018-07-03T08:30:39.981Z,999.55
2018-07-03T08:31:39.916Z,999.51
2018-07-03T08:32:39.902Z,999.56
2018-07-03T08:33:39.909Z,999.52
2018-07-03T08:34:39.871Z,999.49
2018-07-03T08:35:39.880Z,999.48
2018-07-03T08:36:39.873Z,999.46
2018-07-03T08:37:39.869Z,999.45
2018-07-03T08:38:39.842Z,999.48
2018-07-03T08:39:39.819Z,999.48
2018-07-03T08:40:39.813Z,999.50
2018-07-03T08:41:39.820Z,999.49
2018-07-03T08:42:39.785Z,999.47
2018-07-03T08:43:39.787Z,999.49
2018-07-03T08:44:39.770Z,999.48
2018-07-03T08:45:39.753Z,999.49
2018-07-03T08:46:39.759Z,999.52
2018-07-03T08:47:39.761Z,999.55
2018-07-03T08:48:39.730Z,999.52
2018-07-03T08:49:39.755Z,999.50
2018-07-03T08:50:39.700Z,999.51
2018-07-03T08:51:39.727Z,999.44
2018-07-03T08:52:39.675Z,999.48
2018-07-03T08:53:39.669Z,999.52
2018-07-03T08:54:39.652Z,999.46
2018-07-03T08:55:39.664Z,999.48
2018-07-03T08:56:39.661Z,999.45
2018-07-03T08:57:39.626Z,999.51
2018-07-03T08:58:39.607Z,999.48
2018-07-03T08:59:39.596Z,999.50
2018-07-03T09:00:39.608Z,999.47
2018-07-03T09:01:39.595Z,999.46
2018-07-03T09:02:39.567Z,999.49
2018-07-03T09:03:39.597Z,999.47
2018-07-03T09:04:39.581Z,999.49
2018-07-03T09:05:39.533Z,999.48
2018-07-03T09:06:39.546Z,999.47
2018-07-03T09:07:39.509Z,999.45
2018-07-03T09:08:39.500Z,999.47
2018-07-03T09:09:39.502Z,999.49
2018-07-03T09:10:39.480Z,999.49
2018-07-03T09:11:39.489Z,999.48
2018-07-03T09:12:39.454Z,999.47
2018-07-03T09:13:39.448Z,999.51
2018-07-03T09:14:39.432Z,999.55
2018-07-03T09:15:39.450Z,999.53
2018-07-03T09:16:39.462Z,999.46
2018-07-03T09:17:39.497Z,999.49
2018-07-03T09:18:39.394Z,999.50
2018-07-03T09:19:39.378Z,999.47
2018-07-03T09:20:39.367Z,999.44
2018-07-03T09:21:39.409Z,999.44
2018-07-03T09:22:39.361Z,999.44
2018-07-03T09:23:39.375Z,999.55
2018-07-03T09:24:39.324Z,999.47
2018-07-03T09:25:39.333Z,999.45
2018-07-03T09:26:39.370Z,999.44
2018-07-03T09:27:39.293Z,999.46
2018-07-03T09:28:39.280Z,999.46
2018-07-03T09:29:39.285Z,999.45
2018-07-03T09:30:39.289Z,999.42
2018-07-03T09:31:39.268Z,999.35
2018-07-03T09:32:39.238Z,999.42
2018-07-03T09:33:39.436Z,999.44
2018-07-03T09:34:39.217Z,999.35
2018-07-03T09:35:39.206Z,999.37
2018-07-03T09:36:39.214Z,999.40
2018-07-03T09:37:39.238Z,999.40
2018-07-03T09:38:39.176Z,999.41
2018-07-03T09:39:39.167Z,999.39
2018-07-03T09:40:39.363Z,999.37
2018-07-03T09:41:39.181Z,999.36
2018-07-03T09:42:39.127Z,999.45
2018-07-03T09:43:39.115Z,999.40
2018-07-03T09:44:39.108Z,999.37
2018-07-03T09:45:39.096Z,999.36
2018-07-03T09:46:39.119Z,999.33
2018-07-03T09:47:39.079Z,999.39
2018-07-03T09:48:39.062Z,999.42
2018-07-03T09:49:39.062Z,999.40
2018-07-03T09:50:39.042Z,999.42
2018-07-03T09:51:39.057Z,999.40
2018-07-03T09:52:39.017Z,999.41
2018-07-03T09:53:39.008Z,999.39
2018-07-03T09:54:39.014Z,999.42
2018-07-03T09:55:39.001Z,999.39
2018-07-03T09:56:39.001Z,999.39
2018-07-03T09:57:39.013Z,999.37
2018-07-03T09:58:38.973Z,999.39
2018-07-03T09:59:38.944Z,999.39
2018-07-03T10:00:38.934Z,999.39
2018-07-03T10:01:38.979Z,999.41
2018-07-03T10:02:38.914Z,999.39
2018-07-03T10:03:38.922Z,999.35
2018-07-03T10:04:38.888Z,999.40
2018-07-03T10:05:38.880Z,999.39
2018-07-03T10:06:38.885Z,999.40
2018-07-03T10:07:38.995Z,999.37
2018-07-03T10:08:38.844Z,999.34
2018-07-03T10:09:39.062Z,999.36
2018-07-03T10:10:38.821Z,999.34
2018-07-03T10:11:38.845Z,999.41
2018-07-03T10:12:38.809Z,999.39
2018-07-03T10:13:38.804Z,999.42
2018-07-03T10:14:38.779Z,999.41
2018-07-03T10:15:38.770Z,999.40
2018-07-03T10:16:38.918Z,999.39
2018-07-03T10:17:38.824Z,999.42
2018-07-03T10:18:38.735Z,999.40
2018-07-03T10:19:38.827Z,999.40
2018-07-03T10:20:38.733Z,999.44
2018-07-03T10:21:38.703Z,999.41
2018-07-03T10:22:38.714Z,999.36
2018-07-03T10:23:38.685Z,999.42
2018-07-03T10:24:38.689Z,999.42
2018-07-03T10:25:38.681Z,999.37
2018-07-03T10:26:38.665Z,999.37
2018-07-03T10:27:38.655Z,999.35
2018-07-03T10:28:38.626Z,999.38
2018-07-03T10:29:38.630Z,999.38
2018-07-03T10:30:38.602Z,999.43
2018-07-03T10:31:38.599Z,999.40
2018-07-03T10:32:38.654Z,999.40
2018-07-03T10:33:38.574Z,999.43
2018-07-03T10:34:38.560Z,999.35
2018-07-03T10:35:38.550Z,999.41
2018-07-03T10:36:38.537Z,999.38
2018-07-03T10:37:38.549Z,999.37
2018-07-03T10:38:38.556Z,999.37
2018-07-03T10:39:38.512Z,999.35
2018-07-03T10:40:38.493Z,999.37
2018-07-03T10:41:38.499Z,999.35
2018-07-03T10:42:38.493Z,999.37
2018-07-03T10:43:38.478Z,999.32
2018-07-03T10:44:38.450Z,999.30
2018-07-03T10:45:38.448Z,999.30
2018-07-03T10:46:38.428Z,999.30
2018-07-03T10:47:38.437Z,999.27
2018-07-03T10:48:38.406Z,999.31
2018-07-03T10:49:38.395Z,999.31
2018-07-03T10:50:38.395Z,999.30
2018-07-03T10:51:38.376Z,999.27
2018-07-03T10:52:38.385Z,999.27
2018-07-03T10:53:38.355Z,999.26
2018-07-03T10:54:38.495Z,999.30
2018-07-03T10:55:38.332Z,999.28
2018-07-03T10:56:38.318Z,999.29
2018-07-03T10:57:38.334Z,999.25
2018-07-03T10:58:38.420Z,999.23
2018-07-03T10:59:38.334Z,999.23
2018-07-03T11:00:38.276Z,999.18
2018-07-03T11:01:38.277Z,999.19
2018-07-03T11:02:38.274Z,999.21
2018-07-03T11:03:38.242Z,999.20
2018-07-03T11:04:38.244Z,999.18
2018-07-03T11:05:38.275Z,999.18
2018-07-03T11:06:38.211Z,999.23
2018-07-03T11:07:38.220Z,999.17
2018-07-03T11:08:38.187Z,999.14
2018-07-03T11:09:38.190Z,999.19
2018-07-03T11:10:38.168Z,999.20
2018-07-03T11:11:38.170Z,999.21
2018-07-03T11:12:38.169Z,999.20
2018-07-03T11:13:38.136Z,999.23
2018-07-03T11:14:38.123Z,999.18
2018-07-03T11:15:38.115Z,999.17
2018-07-03T11:16:38.179Z,999.15
2018-07-03T11:17:38.110Z,999.12
2018-07-03T11:18:38.084Z,999.09
2018-07-03T11:19:38.136Z,999.11
2018-07-03T11:20:38.058Z,999.07
2018-07-03T11:21:38.059Z,999.06
2018-07-03T11:22:38.058Z,999.08
2018-07-03T11:23:38.024Z,999.07
2018-07-03T11:24:38.018Z,999.04
2018-07-03T11:25:38.003Z,999.02
2018-07-03T11:26:38.030Z,999.05
2018-07-03T11:27:38.012Z,999.01
2018-07-03T11:28:37.970Z,999.03
2018-07-03T11:29:37.959Z,998.99
2018-07-03T11:30:37.951Z,999.04
2018-07-03T11:31:37.937Z,998.98
2018-07-03T11:32:37.946Z,999.02
2018-07-03T11:33:37.964Z,999.00
2018-07-03T11:34:37.905Z,998.99
2018-07-03T11:35:37.892Z,998.97
2018-07-03T11:36:37.883Z,998.95
2018-07-03T11:37:37.916Z,998.96
2018-07-03T11:38:37.870Z,998.98
2018-07-03T11:39:37.862Z,998.93
2018-07-03T11:40:37.840Z,998.91
2018-07-03T11:41:37.831Z,998.85
2018-07-03T11:42:37.838Z,998.86
2018-07-03T11:43:37.806Z,998.86
2018-07-03T11:44:37.797Z,998.86
2018-07-03T11:45:37.803Z,998.89
2018-07-03T11:46:37.826Z,998.91
2018-07-03T11:47:37.786Z,998.90
2018-07-03T11:48:37.753Z,998.88
2018-07-03T11:49:37.744Z,998.89
2018-07-03T11:50:37.731Z,998.86
2018-07-03T11:51:37.738Z,998.87
2018-07-03T11:52:37.729Z,998.90
2018-07-03T11:53:37.741Z,998.85
2018-07-03T11:54:37.687Z,998.86
2018-07-03T11:55:37.676Z,998.92
2018-07-03T11:56:37.665Z,998.91
2018-07-03T11:57:37.668Z,998.96
2018-07-03T11:58:37.663Z,998.91
2018-07-03T11:59:37.632Z,998.91
2018-07-03T12:00:37.620Z,998.88
2018-07-03T12:01:37.628Z,998.87
2018-07-03T12:02:37.602Z,998.84
2018-07-03T12:03:37.628Z,998.87
2018-07-03T12:04:37.580Z,998.83
2018-07-03T12:05:37.568Z,998.86
2018-07-03T12:06:37.553Z,998.82
2018-07-03T12:07:37.547Z,998.85
2018-07-03T12:08:37.556Z,998.83
2018-07-03T12:09:37.554Z,998.83
2018-07-03T12:10:37.513Z,998.83
2018-07-03T12:11:37.501Z,998.83
2018-07-03T12:12:37.491Z,998.79
2018-07-03T12:13:37.500Z,998.77
2018-07-03T12:14:37.468Z,998.77
2018-07-03T12:15:37.469Z,998.73
2018-07-03T12:16:37.447Z,998.74
2018-07-03T12:17:37.438Z,998.75
2018-07-03T12:18:37.444Z,998.78
2018-07-03T12:19:37.430Z,998.79
2018-07-03T12:20:37.403Z,998.75
2018-07-03T12:21:37.407Z,998.74
2018-07-03T12:22:37.381Z,998.73
2018-07-03T12:23:37.390Z,998.76
2018-07-03T12:24:37.363Z,998.73
2018-07-03T12:25:37.350Z,998.71
2018-07-03T12:26:37.338Z,998.70
2018-07-03T12:27:37.343Z,998.74
2018-07-03T12:28:37.341Z,998.74